Time;durP1;ratioP1;P1;durP2;ratioP2;P2;SDS_P1;SDS_P2;PMS_P1;PMS_P2;Temp;Humidity;BMP_temperature;BMP_pressure;BME280_temperature;BME280_humidity;BME280_pressure;Samples;Min_cycle;Max_cycle;Signal;HPM_P1;HPM_P2
2022/12/22 03:26:41;;;;;;;1.77;1.20;;;20.50;50.40;;;;;;5056817;28;20555;-70
2022/12/22 03:29:06;;;;;;;1.83;1.23;;;20.50;50.40;;;;;;5046918;28;20025;-71
2022/12/22 03:31:32;;;;;;;1.88;1.20;;;20.40;50.40;;;;;;5046252;28;20039;-71
2022/12/22 03:33:58;;;;;;;1.65;1.10;;;20.40;50.40;;;;;;5050198;28;20100;-70
2022/12/22 03:36:23;;;;;;;1.60;1.10;;;20.40;50.40;;;;;;5051840;28;20424;-70
2022/12/22 03:38:49;;;;;;;1.52;1.10;;;20.40;50.40;;;;;;5044905;28;20033;-70
2022/12/22 03:46:43;;;;;;;1.80;1.13;;;20.40;50.40;;;;;;5047209;28;20133;-70
2022/12/22 03:49:11;;;;;;;2.40;1.30;;;20.40;50.50;;;;;;5045280;28;20064;-71
2022/12/22 03:51:39;;;;;;;1.85;1.13;;;20.40;50.40;;;;;;5044102;28;20101;-69
2022/12/22 03:54:04;;;;;;;1.42;1.10;;;20.40;50.40;;;;;;5040062;28;20499;-70
2022/12/22 03:56:30;;;;;;;1.60;1.20;;;20.40;50.50;;;;;;5053183;28;20033;-70
2022/12/22 03:58:56;;;;;;;1.60;1.13;;;20.40;50.50;;;;;;5055262;28;20549;-70
2022/12/22 04:01:22;;;;;;;1.70;1.20;;;20.40;50.50;;;;;;5049694;28;20017;-70
2022/12/22 04:03:48;;;;;;;1.50;1.10;;;20.40;50.50;;;;;;5052299;28;20025;-70
2022/12/22 04:06:14;;;;;;;1.80;1.27;;;20.40;50.50;;;;;;5045595;28;20431;-70
2022/12/22 04:08:40;;;;;;;1.73;1.20;;;20.40;50.50;;;;;;5036804;28;20120;-70
2022/12/22 04:13:49;;;;;;;1.25;1.10;;;20.40;50.50;;;;;;5048911;28;20256;-69
2022/12/22 04:16:15;;;;;;;1.98;1.20;;;20.40;50.50;;;;;;5046079;28;20025;-70
2022/12/22 04:18:40;;;;;;;1.63;1.20;;;20.40;50.50;;;;;;5040586;28;20033;-70
2022/12/22 04:21:06;;;;;;;2.03;1.30;;;20.40;50.50;;;;;;5037253;28;20025;-70
2022/12/22 04:23:32;;;;;;;1.63;1.27;;;20.40;50.50;;;;;;5058554;28;20110;-69
2022/12/22 04:25:58;;;;;;;1.52;1.10;;;20.40;50.50;;;;;;5055816;28;20024;-70
2022/12/22 04:28:24;;;;;;;1.33;1.00;;;20.40;50.50;;;;;;5042384;28;20044;-70
2022/12/22 04:30:50;;;;;;;1.75;1.27;;;20.40;50.50;;;;;;5051721;28;20029;-70
2022/12/22 04:33:16;;;;;;;1.70;1.10;;;20.40;50.50;;;;;;5050349;28;20025;-70
2022/12/22 04:35:41;;;;;;;1.45;1.08;;;20.40;50.50;;;;;;5050663;28;20113;-70
2022/12/22 04:38:07;;;;;;;1.30;1.10;;;20.40;50.50;;;;;;5051308;28;20106;-69
2022/12/22 04:40:33;;;;;;;1.50;1.10;;;20.40;50.50;;;;;;5057362;28;20057;-70
2022/12/22 04:42:58;;;;;;;1.52;1.25;;;20.40;50.50;;;;;;5040886;28;20025;-70
2022/12/22 04:45:24;;;;;;;1.73;1.10;;;20.40;50.60;;;;;;5051167;28;20039;-70
2022/12/22 04:47:49;;;;;;;1.65;1.10;;;20.30;50.50;;;;;;5052332;28;20025;-69
2022/12/22 04:50:15;;;;;;;1.60;1.10;;;20.40;50.60;;;;;;5061087;28;20021;-69
2022/12/22 04:52:41;;;;;;;2.08;1.25;;;20.30;50.50;;;;;;5057558;28;20021;-69
2022/12/22 04:55:08;;;;;;;1.50;1.10;;;20.30;50.50;;;;;;5063652;28;20029;-69
2022/12/22 04:57:33;;;;;;;1.70;1.00;;;20.40;50.60;;;;;;5049245;28;20043;-70
2022/12/22 04:59:59;;;;;;;1.63;1.10;;;20.30;50.60;;;;;;5048174;28;20578;-69
2022/12/22 05:02:25;;;;;;;1.65;1.30;;;20.30;50.60;;;;;;5045988;28;20034;-70
2022/12/22 05:04:50;;;;;;;1.40;1.10;;;20.30;50.60;;;;;;5058824;28;20485;-69
2022/12/22 05:07:16;;;;;;;1.17;1.00;;;20.30;50.60;;;;;;5060396;28;20055;-70
2022/12/22 05:09:42;;;;;;;1.13;0.90;;;20.30;50.70;;;;;;5058193;28;20474;-70
2022/12/22 05:14:52;;;;;;;1.40;1.00;;;20.30;50.70;;;;;;5045614;28;20040;-69
2022/12/22 05:17:17;;;;;;;1.40;1.00;;;20.30;50.70;;;;;;5044969;28;20029;-70
2022/12/22 05:19:43;;;;;;;1.27;0.85;;;20.30;50.80;;;;;;5051038;28;20020;-69
2022/12/22 05:22:09;;;;;;;1.33;0.95;;;20.30;50.80;;;;;;5055645;28;20033;-70
2022/12/22 05:24:34;;;;;;;1.55;1.20;;;20.30;50.80;;;;;;5046151;28;20127;-70
2022/12/22 05:27:00;;;;;;;1.05;0.90;;;20.30;50.80;;;;;;5041695;28;20033;-70
2022/12/22 05:29:25;;;;;;;0.77;0.73;;;20.30;50.90;;;;;;5052919;28;20430;-70
2022/12/22 05:31:51;;;;;;;1.25;0.95;;;20.30;50.90;;;;;;5051467;28;20032;-70
2022/12/22 05:34:17;;;;;;;1.30;0.95;;;20.30;50.90;;;;;;5054568;28;20033;-70
2022/12/22 05:36:42;;;;;;;1.20;1.00;;;20.20;50.90;;;;;;5049910;28;20079;-70
2022/12/22 05:39:08;;;;;;;1.02;0.90;;;20.20;50.90;;;;;;5046329;28;20033;-70
2022/12/22 05:41:33;;;;;;;1.20;0.90;;;20.20;50.90;;;;;;5044193;28;20546;-70
2022/12/22 05:43:59;;;;;;;1.08;0.82;;;20.20;50.90;;;;;;5055227;28;20112;-69
2022/12/22 05:46:24;;;;;;;1.30;0.90;;;20.20;51.00;;;;;;5056580;28;20037;-70
2022/12/22 05:48:50;;;;;;;1.20;0.93;;;20.30;51.10;;;;;;5036416;28;20029;-69
2022/12/22 05:51:16;;;;;;;1.20;0.88;;;20.20;51.10;;;;;;5032202;28;20063;-69
2022/12/22 05:53:41;;;;;;;1.25;1.00;;;20.20;51.10;;;;;;5059903;28;20468;-70
2022/12/22 05:56:07;;;;;;;1.23;0.98;;;20.20;51.10;;;;;;5052248;28;20036;-70
2022/12/22 05:58:34;;;;;;;1.15;0.85;;;20.20;51.10;;;;;;5049609;28;20550;-70
2022/12/22 06:01:00;;;;;;;1.10;0.90;;;20.20;51.10;;;;;;5037935;28;20025;-70
2022/12/22 06:03:27;;;;;;;1.63;1.00;;;20.20;51.10;;;;;;5050276;28;20098;-71
2022/12/22 06:05:53;;;;;;;1.35;1.00;;;20.20;51.20;;;;;;5031461;28;20495;-70
2022/12/22 06:08:19;;;;;;;1.33;0.90;;;20.20;51.10;;;;;;5057849;28;20468;-70
2022/12/22 06:10:44;;;;;;;1.20;0.90;;;20.20;51.20;;;;;;5056158;28;20056;-70
2022/12/22 06:13:10;;;;;;;1.42;0.90;;;20.20;51.20;;;;;;5053664;28;20036;-71
2022/12/22 06:15:36;;;;;;;1.02;0.90;;;20.20;51.20;;;;;;5050817;28;20025;-71
2022/12/22 06:18:01;;;;;;;1.30;0.90;;;20.20;51.30;;;;;;5049951;28;20028;-71
2022/12/22 06:20:27;;;;;;;1.13;0.90;;;20.20;51.30;;;;;;5046628;28;20044;-70
2022/12/22 06:22:53;;;;;;;1.10;0.80;;;20.10;51.20;;;;;;5041779;28;20525;-71
2022/12/22 06:25:18;;;;;;;1.08;0.90;;;20.10;51.20;;;;;;5039412;28;20464;-71
2022/12/22 06:27:45;;;;;;;1.20;0.90;;;20.10;51.20;;;;;;5051059;28;20088;-71
2022/12/22 06:30:10;;;;;;;1.65;0.90;;;20.10;51.20;;;;;;5049945;28;20431;-71
2022/12/22 06:32:37;;;;;;;1.20;0.95;;;20.10;51.20;;;;;;5046501;28;20056;-71
2022/12/22 06:35:04;;;;;;;1.10;0.90;;;20.10;51.20;;;;;;5054255;28;20025;-71
2022/12/22 06:37:29;;;;;;;1.17;0.82;;;20.10;51.30;;;;;;5053520;28;20442;-71
2022/12/22 06:39:55;;;;;;;1.40;1.00;;;20.10;51.30;;;;;;5056263;28;20017;-71
2022/12/22 06:45:05;;;;;;;1.20;0.90;;;20.10;51.40;;;;;;5056193;28;20024;-71
2022/12/22 06:47:31;;;;;;;1.63;1.02;;;20.10;51.40;;;;;;5041360;28;20025;-72
2022/12/22 06:49:56;;;;;;;1.10;0.95;;;20.10;51.40;;;;;;5040406;28;20461;-71
2022/12/22 06:52:22;;;;;;;0.80;0.80;;;20.10;51.40;;;;;;5062193;28;20078;-72
2022/12/22 06:54:48;;;;;;;1.83;0.90;;;20.10;51.40;;;;;;5050358;28;20029;-72
2022/12/22 06:57:13;;;;;;;1.25;0.80;;;20.10;51.40;;;;;;5049670;28;20431;-71
2022/12/22 06:59:39;;;;;;;1.67;1.00;;;20.10;51.40;;;;;;5049935;28;20025;-71
2022/12/22 07:02:05;;;;;;;1.20;0.90;;;20.10;51.40;;;;;;5049685;28;20021;-71
2022/12/22 07:04:31;;;;;;;1.17;0.90;;;20.10;51.30;;;;;;5053246;28;20468;-72
2022/12/22 07:06:56;;;;;;;1.35;0.93;;;20.00;51.30;;;;;;5045546;28;20021;-71
2022/12/22 07:09:22;;;;;;;0.93;0.80;;;20.10;51.40;;;;;;5038634;28;20033;-71
2022/12/22 07:11:47;;;;;;;1.13;0.88;;;20.00;51.30;;;;;;5048342;28;20100;-71
2022/12/22 07:14:13;;;;;;;1.33;1.00;;;20.10;51.30;;;;;;5039491;28;20026;-71
2022/12/22 07:16:38;;;;;;;1.45;1.02;;;20.00;51.30;;;;;;5044789;28;20028;-71
2022/12/22 07:19:04;;;;;;;1.90;1.10;;;20.00;51.30;;;;;;5049013;28;20035;-71
2022/12/22 07:21:30;;;;;;;1.42;1.00;;;20.00;51.40;;;;;;5055619;28;20099;-71
2022/12/22 07:23:56;;;;;;;1.25;0.85;;;20.00;51.40;;;;;;5052867;28;20081;-72
2022/12/22 07:26:21;;;;;;;1.90;0.90;;;20.00;51.40;;;;;;5039847;28;20029;-71
2022/12/22 07:28:47;;;;;;;0.85;0.70;;;20.00;51.50;;;;;;5049885;28;20029;-71
2022/12/22 07:31:14;;;;;;;1.25;0.95;;;20.00;51.50;;;;;;5037359;28;20441;-72
2022/12/22 07:33:40;;;;;;;1.30;0.90;;;20.00;51.40;;;;;;5051045;28;20037;-72
2022/12/22 07:36:08;;;;;;;0.90;0.70;;;20.00;51.40;;;;;;5047142;28;20028;-71
2022/12/22 07:38:38;;;;;;;1.00;0.80;;;20.00;51.40;;;;;;5045264;28;20040;-72
2022/12/22 07:42:43;;;;;;;1.30;0.90;;;20.00;51.40;;;;;;5046519;28;20021;-71
2022/12/22 07:43:56;;;;;;;1.73;1.00;;;20.00;51.40;;;;;;5047787;28;20495;-71
2022/12/22 07:46:23;;;;;;;1.70;0.90;;;20.00;51.40;;;;;;5049364;28;20500;-71
2022/12/22 07:51:35;;;;;;;1.95;1.00;;;20.00;51.40;;;;;;5052291;28;20504;-72
2022/12/22 07:54:04;;;;;;;1.58;1.00;;;20.00;51.40;;;;;;5055033;28;20457;-72
2022/12/22 07:56:29;;;;;;;2.13;1.10;;;20.00;51.40;;;;;;5049812;28;20124;-72
2022/12/22 07:58:55;;;;;;;1.50;0.90;;;20.00;51.40;;;;;;5058561;28;20097;-71
2022/12/22 08:01:21;;;;;;;1.73;0.80;;;20.00;51.40;;;;;;5059679;28;20429;-71
2022/12/22 08:03:46;;;;;;;1.35;0.90;;;20.00;51.40;;;;;;5058458;28;20032;-71
2022/12/22 08:06:12;;;;;;;2.00;1.00;;;20.00;51.40;;;;;;5042064;28;20116;-71
2022/12/22 08:08:37;;;;;;;1.08;0.82;;;20.00;51.40;;;;;;5051981;28;20025;-71
2022/12/22 08:11:04;;;;;;;1.48;1.00;;;20.00;51.40;;;;;;5058240;28;20020;-71
2022/12/22 08:13:30;;;;;;;1.55;0.95;;;20.00;51.40;;;;;;5058622;28;20051;-71
2022/12/22 08:16:01;;;;;;;1.63;1.00;;;19.90;51.30;;;;;;5052664;28;20029;-72
2022/12/22 08:18:27;;;;;;;2.60;1.33;;;20.00;51.30;;;;;;5054238;28;20044;-72
2022/12/22 08:20:52;;;;;;;2.15;1.20;;;19.90;51.40;;;;;;5048520;28;20029;-70
2022/12/22 08:23:18;;;;;;;1.33;0.95;;;19.90;51.40;;;;;;5044845;28;20273;-71
2022/12/22 08:25:47;;;;;;;1.65;1.17;;;19.90;51.40;;;;;;5056322;28;20024;-71
2022/12/22 08:28:15;;;;;;;1.98;1.02;;;19.90;51.40;;;;;;5055975;28;20025;-71
2022/12/22 08:30:41;;;;;;;1.80;1.00;;;19.90;51.40;;;;;;5054508;28;20477;-71
2022/12/22 08:33:07;;;;;;;1.50;0.90;;;19.90;51.40;;;;;;5057350;28;20021;-71
2022/12/22 08:35:33;;;;;;;2.28;1.10;;;19.90;51.40;;;;;;5055146;28;20061;-72
2022/12/22 08:37:58;;;;;;;1.52;0.88;;;19.90;51.30;;;;;;5054917;28;20036;-71
2022/12/22 08:40:27;;;;;;;1.40;0.90;;;19.90;51.40;;;;;;5058620;28;20021;-71
2022/12/22 08:42:57;;;;;;;1.70;1.00;;;19.90;51.40;;;;;;5046655;28;20518;-71
2022/12/22 08:45:24;;;;;;;2.85;1.20;;;19.90;51.40;;;;;;5062695;28;20031;-71
2022/12/22 08:47:49;;;;;;;1.50;0.82;;;19.90;51.40;;;;;;5037796;28;20024;-71
2022/12/22 08:50:15;;;;;;;1.80;1.00;;;19.90;51.40;;;;;;5057549;28;20531;-71
2022/12/22 08:52:41;;;;;;;1.88;0.90;;;19.90;51.50;;;;;;5050099;28;20036;-71
2022/12/22 08:55:07;;;;;;;2.35;1.10;;;19.90;51.50;;;;;;5059145;28;20025;-72
2022/12/22 08:57:33;;;;;;;1.88;0.95;;;19.90;51.50;;;;;;5062205;28;20426;-72
2022/12/22 08:59:59;;;;;;;2.22;1.10;;;19.90;51.40;;;;;;5046799;28;20108;-73
2022/12/22 09:02:24;;;;;;;2.22;0.95;;;19.90;51.50;;;;;;5041895;28;20397;-73
2022/12/22 09:04:50;;;;;;;2.35;1.10;;;19.90;51.50;;;;;;5050352;28;20473;-73
2022/12/22 09:07:17;;;;;;;1.95;1.00;;;19.90;51.50;;;;;;5053494;28;20032;-72
2022/12/22 09:09:43;;;;;;;1.83;0.82;;;19.80;51.40;;;;;;5040264;28;20029;-72
2022/12/22 09:12:09;;;;;;;1.70;0.90;;;19.90;51.50;;;;;;5046742;28;20019;-72
2022/12/22 09:14:34;;;;;;;1.67;0.85;;;19.90;51.50;;;;;;5049039;28;20041;-72
2022/12/22 09:17:00;;;;;;;1.90;1.00;;;19.90;51.50;;;;;;5056011;28;20041;-72
2022/12/22 09:19:26;;;;;;;2.28;1.00;;;19.90;51.50;;;;;;5056587;28;20163;-72
2022/12/22 09:21:51;;;;;;;2.55;1.15;;;19.90;51.50;;;;;;5048270;28;20040;-72
2022/12/22 09:24:17;;;;;;;2.72;1.20;;;19.90;51.50;;;;;;5056416;28;20029;-72
2022/12/22 09:26:42;;;;;;;2.08;1.10;;;19.80;51.50;;;;;;5056332;28;20031;-72
2022/12/22 09:29:08;;;;;;;2.53;1.00;;;19.80;51.40;;;;;;5052882;28;20108;-72
2022/12/22 09:31:34;;;;;;;1.55;0.90;;;19.90;51.50;;;;;;5055843;28;20021;-72
2022/12/22 09:34:00;;;;;;;3.20;1.10;;;19.90;51.50;;;;;;5048910;28;20029;-72
2022/12/22 09:36:29;;;;;;;2.00;1.13;;;19.90;51.50;;;;;;5035827;28;20024;-72
2022/12/22 09:38:56;;;;;;;1.40;0.85;;;19.90;51.50;;;;;;5050339;28;20111;-72
2022/12/22 09:41:33;;;;;;;2.10;1.10;;;19.90;51.50;;;;;;5037776;28;20040;-72
2022/12/22 09:44:27;;;;;;;1.60;1.00;;;19.90;51.60;;;;;;5055438;28;20025;-72
2022/12/22 09:46:55;;;;;;;1.60;0.90;;;19.80;51.60;;;;;;5050555;28;20021;-71
2022/12/22 09:49:21;;;;;;;1.83;0.98;;;19.90;51.60;;;;;;5051721;28;20562;-71
2022/12/22 09:51:51;;;;;;;2.05;1.02;;;19.90;51.60;;;;;;5049386;28;20053;-71
2022/12/22 09:54:17;;;;;;;1.48;1.00;;;19.80;51.60;;;;;;5044548;28;20048;-71
2022/12/22 09:56:43;;;;;;;2.15;1.13;;;19.80;51.60;;;;;;5025596;28;20029;-71
2022/12/22 09:59:18;;;;;;;2.25;1.15;;;19.80;51.60;;;;;;5055005;28;20025;-71
2022/12/22 10:02:00;;;;;;;1.95;1.00;;;19.80;52.10;;;;;;5043483;28;20365;-72
2022/12/22 10:04:36;;;;;;;2.22;1.10;;;19.80;51.60;;;;;;5041211;28;20017;-71
2022/12/22 10:07:21;;;;;;;2.35;1.13;;;19.80;51.60;;;;;;5043220;28;20061;-71
2022/12/22 10:09:46;;;;;;;2.20;1.00;;;19.80;51.60;;;;;;5056253;28;20031;-71
2022/12/22 10:12:20;;;;;;;1.70;0.90;;;19.80;51.60;;;;;;5057791;28;20025;-72
2022/12/22 10:14:48;;;;;;;1.77;1.00;;;19.80;51.60;;;;;;5051815;28;20032;-72
2022/12/22 10:17:20;;;;;;;2.25;0.95;;;19.80;51.60;;;;;;5036894;28;20053;-72
2022/12/22 10:19:46;;;;;;;3.17;1.00;;;19.80;51.70;;;;;;5042959;28;20119;-71
2022/12/22 10:22:21;;;;;;;1.33;0.95;;;19.80;51.70;;;;;;5046288;28;20028;-71
2022/12/22 10:24:46;;;;;;;2.00;1.00;;;19.80;51.70;;;;;;5050514;28;20096;-71
2022/12/22 10:27:12;;;;;;;2.25;1.00;;;19.80;51.70;;;;;;5052850;28;20059;-71
2022/12/22 10:29:38;;;;;;;1.63;1.02;;;19.80;51.70;;;;;;5051454;28;20095;-70
2022/12/22 10:32:11;;;;;;;1.83;1.00;;;19.80;51.70;;;;;;5047367;28;20128;-71
2022/12/22 10:34:57;;;;;;;2.13;1.10;;;19.80;51.70;;;;;;5047214;28;20500;-70
2022/12/22 10:37:31;;;;;;;1.58;0.88;;;19.80;51.80;;;;;;5055550;28;20040;-71
2022/12/22 10:39:56;;;;;;;1.58;1.00;;;19.80;51.80;;;;;;5051157;28;20082;-72
2022/12/22 10:42:22;;;;;;;1.50;0.98;;;19.80;51.70;;;;;;5050015;28;20036;-72
2022/12/22 10:44:48;;;;;;;2.17;1.10;;;19.80;51.80;;;;;;5043714;28;20028;-72
2022/12/22 10:47:19;;;;;;;1.83;0.93;;;19.80;51.80;;;;;;5026790;28;20500;-73
2022/12/22 10:49:56;;;;;;;2.25;1.20;;;19.80;51.80;;;;;;5052907;28;20054;-73
2022/12/22 10:52:25;;;;;;;1.40;0.90;;;19.70;51.70;;;;;;5038236;28;20028;-73
2022/12/22 10:54:51;;;;;;;2.15;0.95;;;19.80;51.80;;;;;;5059829;28;20086;-72
2022/12/22 10:57:16;;;;;;;1.95;1.00;;;19.80;52.30;;;;;;5059758;28;20428;-72
2022/12/22 10:59:57;;;;;;;2.03;1.23;;;19.80;51.80;;;;;;5048013;28;20036;-72
2022/12/22 11:02:25;;;;;;;1.80;0.93;;;19.80;51.80;;;;;;5029940;28;20029;-73
2022/12/22 11:04:52;;;;;;;1.88;0.90;;;19.80;51.90;;;;;;5035581;28;20020;-72
2022/12/22 11:07:18;;;;;;;1.42;0.80;;;19.80;51.80;;;;;;5053572;28;20025;-72
2022/12/22 11:09:44;;;;;;;2.83;0.88;;;19.80;51.80;;;;;;5050725;28;20360;-72
2022/12/22 11:12:28;;;;;;;1.58;0.90;;;19.80;51.80;;;;;;5036352;28;20040;-72
2022/12/22 11:15:29;;;;;;;1.95;1.10;;;19.80;51.90;;;;;;5045098;28;20082;-72
2022/12/22 11:18:06;;;;;;;1.40;0.90;;;19.80;51.80;;;;;;5012060;28;20044;-72
2022/12/22 11:20:47;;;;;;;1.73;0.93;;;19.80;51.90;;;;;;5041982;28;20040;-72
2022/12/22 11:23:15;;;;;;;2.40;1.13;;;19.80;51.90;;;;;;5050276;28;20034;-72
2022/12/22 11:25:44;;;;;;;2.10;0.90;;;19.80;51.90;;;;;;5038654;28;20201;-72
2022/12/22 11:28:31;;;;;;;1.60;1.00;;;19.70;51.90;;;;;;5062793;28;20516;-72
2022/12/22 11:31:12;;;;;;;1.77;0.80;;;19.80;51.90;;;;;;5044983;28;20077;-72
2022/12/22 11:34:20;;;;;;;2.03;0.90;;;19.70;51.90;;;;;;5050684;28;20051;-72
2022/12/22 11:37:11;;;;;;;1.67;1.00;;;19.70;51.90;;;;;;5054118;28;20037;-72
2022/12/22 11:39:45;;;;;;;1.90;1.08;;;19.80;51.90;;;;;;5046891;28;20030;-72
2022/12/22 11:42:29;;;;;;;1.60;0.80;;;19.80;51.90;;;;;;5044155;28;20033;-71
2022/12/22 11:45:21;;;;;;;1.77;0.80;;;19.80;51.90;;;;;;5048121;28;20366;-71
2022/12/22 11:48:24;;;;;;;1.90;1.00;;;19.80;52.00;;;;;;5051627;28;20104;-72
2022/12/22 11:50:55;;;;;;;1.75;0.95;;;19.80;51.90;;;;;;5054305;28;20028;-72
2022/12/22 11:53:41;;;;;;;1.17;0.77;;;19.70;51.90;;;;;;5045993;28;20119;-71
2022/12/22 11:56:22;;;;;;;1.20;0.80;;;19.80;51.90;;;;;;5047951;28;20021;-72
2022/12/22 11:59:00;;;;;;;1.83;1.00;;;19.80;52.00;;;;;;5048941;28;20025;-72
2022/12/22 12:01:58;;;;;;;2.03;0.93;;;19.80;51.90;;;;;;5049158;28;20024;-72
2022/12/22 12:04:54;;;;;;;1.27;0.77;;;19.80;51.90;;;;;;4994148;28;20468;-72
2022/12/22 12:07:36;;;;;;;1.65;0.80;;;19.80;51.90;;;;;;5053737;28;20420;-72
2022/12/22 12:10:17;;;;;;;1.35;0.80;;;19.80;51.90;;;;;;5036847;28;20478;-72
2022/12/22 12:12:58;;;;;;;2.30;1.00;;;19.80;51.90;;;;;;5048561;28;20110;-72
2022/12/22 12:15:27;;;;;;;2.05;0.93;;;19.80;51.90;;;;;;5057157;28;20031;-71
2022/12/22 12:17:55;;;;;;;1.93;1.00;;;19.80;51.90;;;;;;5050073;28;20420;-72
2022/12/22 12:20:50;;;;;;;1.05;0.70;;;19.80;51.90;;;;;;5061712;28;20778;-72
2022/12/22 12:23:25;;;;;;;1.50;0.90;;;19.80;51.90;;;;;;4980103;28;20047;-73
2022/12/22 12:25:59;;;;;;;1.83;0.95;;;19.80;51.90;;;;;;5043254;28;20468;-72
2022/12/22 12:28:53;;;;;;;1.77;0.90;;;19.80;51.90;;;;;;5044303;28;20377;-72
2022/12/22 12:31:23;;;;;;;1.17;0.80;;;19.80;52.00;;;;;;5060096;28;20534;-72
2022/12/22 12:33:51;;;;;;;;;;;19.80;51.90;;;;;;5053192;28;20033;-72
2022/12/22 12:36:48;;;;;;;2.40;0.80;;;19.80;51.90;;;;;;5054091;28;19926;-72
2022/12/22 12:39:30;;;;;;;1.10;0.80;;;19.80;51.90;;;;;;5018990;28;20049;-72
2022/12/22 12:42:25;;;;;;;1.83;1.13;;;19.80;52.00;;;;;;5059652;28;20492;-71
2022/12/22 12:44:52;;;;;;;1.20;0.77;;;19.80;51.90;;;;;;5042889;28;20025;-71
2022/12/22 12:47:30;;;;;;;1.58;0.90;;;19.80;51.90;;;;;;5053986;28;20024;-72
2022/12/22 12:49:57;;;;;;;0.90;0.63;;;19.80;51.90;;;;;;5060000;28;20066;-72
2022/12/22 12:52:47;;;;;;;1.30;0.88;;;19.80;51.90;;;;;;5062270;28;20044;-71
2022/12/22 12:55:28;;;;;;;1.40;0.90;;;19.80;51.90;;;;;;5042097;28;20439;-72
2022/12/22 12:57:54;;;;;;;1.77;1.00;;;19.80;51.90;;;;;;5053199;28;20392;-71
2022/12/22 13:00:32;;;;;;;1.80;0.85;;;19.80;51.90;;;;;;5060627;28;20025;-71
2022/12/22 13:03:02;;;;;;;1.33;0.77;;;19.80;51.90;;;;;;5053770;28;20017;-72
2022/12/22 13:05:35;;;;;;;1.17;0.80;;;19.80;52.00;;;;;;5052756;28;20060;-72
2022/12/22 13:08:09;;;;;;;1.73;0.90;;;19.80;52.10;;;;;;5054293;28;20384;-71
2022/12/22 13:10:38;;;;;;;1.20;0.77;;;19.80;51.90;;;;;;5045422;28;20060;-71
2022/12/22 13:13:05;;;;;;;1.48;0.90;;;19.80;52.00;;;;;;5056171;28;20055;-70
2022/12/22 13:15:40;;;;;;;1.60;0.80;;;19.80;51.90;;;;;;5051502;28;20029;-71
2022/12/22 13:18:27;;;;;;;1.15;0.85;;;19.80;52.40;;;;;;5062230;28;20460;-72
2022/12/22 13:21:02;;;;;;;1.48;0.80;;;19.80;51.90;;;;;;5066395;28;20078;-71
2022/12/22 13:23:39;;;;;;;1.85;0.90;;;19.80;51.90;;;;;;5046887;28;20060;-71
2022/12/22 13:26:09;;;;;;;1.77;1.00;;;19.80;51.90;;;;;;5051391;28;20018;-71
2022/12/22 13:28:38;;;;;;;1.73;0.90;;;19.80;51.90;;;;;;5052965;28;20124;-71
2022/12/22 13:31:12;;;;;;;1.15;0.80;;;19.80;51.90;;;;;;5055026;28;20065;-71
2022/12/22 13:33:40;;;;;;;1.45;0.80;;;19.80;51.90;;;;;;5054766;28;20032;-71
2022/12/22 13:36:07;;;;;;;1.67;0.90;;;19.80;51.90;;;;;;5050407;28;20024;-71
2022/12/22 13:38:33;;;;;;;1.40;0.90;;;19.80;51.90;;;;;;5053649;28;20036;-72
2022/12/22 13:41:03;;;;;;;1.17;0.70;;;19.80;51.90;;;;;;5049750;28;20104;-72
2022/12/22 13:43:30;;;;;;;;;;;19.80;51.90;;;;;;5050346;28;20025;-72
2022/12/22 13:45:58;;;;;;;1.20;0.70;;;19.80;51.90;;;;;;5050408;28;20067;-73
2022/12/22 13:48:54;;;;;;;2.65;0.85;;;19.80;51.90;;;;;;5020422;28;20043;-72
2022/12/22 13:51:31;;;;;;;2.20;0.93;;;19.80;51.90;;;;;;5017796;28;20394;-72
2022/12/22 13:54:03;;;;;;;1.33;0.80;;;19.80;51.90;;;;;;5033811;28;20025;-72
2022/12/22 13:56:48;;;;;;;1.48;0.70;;;19.80;52.10;;;;;;5045648;28;20481;-72
2022/12/22 13:59:20;;;;;;;2.10;1.00;;;19.80;52.20;;;;;;5051296;28;20441;-72
2022/12/22 14:01:50;;;;;;;1.70;0.90;;;19.90;52.20;;;;;;5043197;28;20379;-72
2022/12/22 14:04:16;;;;;;;1.20;0.70;;;19.90;52.20;;;;;;5041098;28;20036;-73
2022/12/22 14:06:42;;;;;;;1.92;0.93;;;19.90;52.20;;;;;;5053406;28;20025;-72
2022/12/22 14:09:25;;;;;;;1.95;0.80;;;19.90;52.30;;;;;;5052967;28;20025;-72
2022/12/22 14:12:02;;;;;;;2.03;0.80;;;19.90;52.30;;;;;;5054007;28;20032;-72
2022/12/22 14:14:40;;;;;;;1.33;0.75;;;20.00;52.30;;;;;;5038165;28;20026;-72
2022/12/22 14:17:36;;;;;;;2.03;0.88;;;20.10;52.40;;;;;;5029816;28;20033;-73
2022/12/22 14:20:20;;;;;;;1.75;0.70;;;20.00;52.40;;;;;;5047446;28;20574;-72
2022/12/22 14:22:53;;;;;;;1.60;0.82;;;20.10;52.50;;;;;;5036759;28;20032;-72
2022/12/22 14:25:23;;;;;;;1.48;0.88;;;20.10;52.40;;;;;;5048850;28;20384;-71
2022/12/22 14:27:54;;;;;;;1.65;0.98;;;20.20;53.00;;;;;;5051173;28;20024;-71
2022/12/22 14:30:40;;;;;;;1.02;0.75;;;20.20;52.50;;;;;;5045857;28;20330;-71
2022/12/22 14:33:25;;;;;;;1.58;0.73;;;20.20;52.40;;;;;;5047463;28;20496;-71
2022/12/22 14:35:51;;;;;;;2.75;0.75;;;20.20;52.40;;;;;;5043165;28;20021;-71
2022/12/22 14:38:23;;;;;;;1.38;0.82;;;20.10;52.30;;;;;;5049414;28;20017;-71
2022/12/22 14:40:50;;;;;;;1.63;0.90;;;20.10;52.30;;;;;;5048324;28;20473;-71
2022/12/22 14:43:15;;;;;;;2.28;0.80;;;20.20;52.40;;;;;;5045273;28;20384;-71
2022/12/22 14:45:42;;;;;;;2.25;0.90;;;20.10;52.30;;;;;;5047069;28;20025;-71
2022/12/22 14:48:08;;;;;;;2.35;0.80;;;20.20;52.30;;;;;;5033779;28;20036;-71
2022/12/22 14:50:35;;;;;;;2.28;0.85;;;20.20;52.30;;;;;;5043195;28;20472;-71
2022/12/22 14:53:03;;;;;;;2.28;1.00;;;20.20;52.30;;;;;;5035892;28;20041;-71
2022/12/22 14:55:39;;;;;;;1.27;0.70;;;20.10;52.20;;;;;;5047621;28;20022;-71
2022/12/22 14:58:21;;;;;;;1.48;0.90;;;20.20;52.30;;;;;;5038676;28;20029;-71
2022/12/22 15:01:08;;;;;;;1.55;0.77;;;20.20;52.50;;;;;;5049022;28;20472;-72
2022/12/22 15:03:35;;;;;;;1.98;0.90;;;20.20;52.50;;;;;;5047194;28;20028;-72
2022/12/22 15:06:20;;;;;;;2.45;0.82;;;20.20;52.50;;;;;;5038686;28;20029;-72
2022/12/22 15:08:45;;;;;;;1.40;0.68;;;20.30;52.60;;;;;;5053712;28;20492;-71
2022/12/22 15:11:14;;;;;;;1.98;0.82;;;20.30;52.60;;;;;;5063484;28;20082;-72
2022/12/22 15:13:41;;;;;;;1.33;0.68;;;20.30;52.60;;;;;;5053761;28;20033;-72
2022/12/22 15:16:13;;;;;;;1.90;0.90;;;20.30;52.50;;;;;;5045225;28;20503;-72
2022/12/22 15:18:40;;;;;;;2.78;0.88;;;20.30;52.60;;;;;;5041578;28;20083;-72
2022/12/22 15:21:05;;;;;;;2.85;0.80;;;20.30;52.50;;;;;;5050222;28;20032;-72
2022/12/22 15:23:31;;;;;;;1.83;0.90;;;20.30;52.40;;;;;;5055786;28;20035;-72
2022/12/22 15:25:56;;;;;;;1.27;0.68;;;20.30;52.40;;;;;;5056651;28;20018;-71
2022/12/22 15:28:22;;;;;;;2.33;0.80;;;20.30;52.40;;;;;;5046448;28;20036;-72
2022/12/22 15:30:48;;;;;;;1.45;0.80;;;20.30;52.40;;;;;;5054764;28;20031;-72
2022/12/22 15:33:16;;;;;;;1.30;0.80;;;20.30;52.40;;;;;;5056177;28;20029;-72
2022/12/22 15:35:44;;;;;;;1.55;0.73;;;20.30;52.40;;;;;;5050101;28;20021;-72
2022/12/22 15:38:15;;;;;;;1.48;0.80;;;20.20;52.30;;;;;;5053255;28;20032;-72
2022/12/22 15:40:42;;;;;;;1.52;0.90;;;20.20;52.20;;;;;;5054228;28;20032;-72
2022/12/22 15:43:08;;;;;;;1.70;0.80;;;20.20;52.20;;;;;;5054171;28;20025;-72
2022/12/22 15:45:37;;;;;;;1.50;0.90;;;20.20;52.20;;;;;;5056343;28;20032;-72
2022/12/22 15:48:05;;;;;;;1.50;0.90;;;20.20;52.20;;;;;;5040710;28;20148;-72
2022/12/22 15:50:33;;;;;;;1.98;0.90;;;20.20;52.20;;;;;;5051427;28;20551;-72
2022/12/22 15:53:00;;;;;;;2.42;1.00;;;20.20;52.30;;;;;;5057566;28;20032;-72
2022/12/22 15:55:26;;;;;;;1.98;0.90;;;20.20;52.30;;;;;;5053296;28;20394;-72
2022/12/22 15:57:58;;;;;;;1.70;0.80;;;20.20;52.40;;;;;;5034471;28;20041;-72
2022/12/22 16:00:24;;;;;;;1.90;0.88;;;20.30;52.40;;;;;;5044351;28;20127;-72
2022/12/22 16:02:49;;;;;;;2.45;0.90;;;20.30;52.40;;;;;;5047271;28;20476;-72
2022/12/22 16:05:16;;;;;;;2.90;0.90;;;20.30;52.30;;;;;;5039014;28;20112;-71
2022/12/22 16:07:42;;;;;;;1.65;0.90;;;20.30;52.30;;;;;;5037483;28;20024;-71
2022/12/22 16:10:28;;;;;;;2.65;0.90;;;20.30;52.30;;;;;;5055852;28;20524;-72
2022/12/22 16:12:59;;;;;;;1.88;0.82;;;20.30;52.30;;;;;;5053068;28;20048;-71
2022/12/22 16:15:30;;;;;;;2.05;0.90;;;20.30;52.20;;;;;;5046303;28;20067;-72
2022/12/22 16:17:57;;;;;;;2.10;0.90;;;20.30;52.20;;;;;;5061522;28;20032;-71
2022/12/22 16:20:24;;;;;;;1.58;0.80;;;20.20;52.20;;;;;;5058632;28;20028;-71
2022/12/22 16:22:50;;;;;;;2.35;0.90;;;20.20;52.20;;;;;;5049173;28;20034;-72
2022/12/22 16:25:22;;;;;;;1.27;0.70;;;20.20;52.20;;;;;;5050828;28;20535;-71
2022/12/22 16:27:49;;;;;;;1.88;0.80;;;20.20;52.20;;;;;;5044967;28;20397;-71
2022/12/22 16:30:22;;;;;;;2.00;0.90;;;20.20;52.20;;;;;;5050058;28;20492;-71
2022/12/22 16:32:47;;;;;;;2.47;1.08;;;20.20;52.20;;;;;;5053875;28;20026;-71
2022/12/22 16:35:19;;;;;;;2.42;0.93;;;20.20;52.20;;;;;;5049164;28;20080;-69
2022/12/22 16:37:45;;;;;;;2.10;0.90;;;20.20;52.20;;;;;;5024806;28;20530;-71
2022/12/22 16:40:12;;;;;;;1.70;0.90;;;20.20;52.20;;;;;;5056627;28;20113;-70
2022/12/22 16:42:39;;;;;;;2.10;0.85;;;20.20;52.30;;;;;;5049278;28;20539;-68
2022/12/22 16:45:15;;;;;;;2.40;0.95;;;20.30;52.40;;;;;;5053774;28;20029;-70